Houston Lake, Missouri
Current Conditions -  °F | °C
As of 1:54 PM on Saturday 25 Oct 2014 (Local Time) from KMKC Reporting Station
Clear Clear  
Wind Chill: 26°   Ceiling: Unl
Heat Index: 26°   Visibility: 10mi
Dew Point: 15°   Wind: 5mph
Humidity: 52%   Direction: NA
Pressure: 30.04"   Gusts: NA
Location:  39.2125°N, 94.6296°W
Report Text: KMKC 251854Z VRB04KT 10SM CLR 26/15 A3004 RMK AO2 SLP165 T02560150
Loading
Personal Weather Stations






























Interactive Weather Map
Tropical Storm Tracking
New forecast layout! Learn more

10-Day Weather Forecast

Advertisements
Track Severe Weather on mobile